createdAt,value
2023-02-03T00:00:30.925Z,75.73
2023-02-03T00:03:39.330Z,75.32
2023-02-03T00:06:42.031Z,74.45
2023-02-03T00:09:52.452Z,73.59
2023-02-03T00:13:03.667Z,72.87
2023-02-03T00:16:22.722Z,74.09
2023-02-03T00:19:31.337Z,74.58
2023-02-03T00:22:33.643Z,75.74
2023-02-03T00:25:39.940Z,74.71
2023-02-03T00:28:49.281Z,74.62
2023-02-03T00:32:03.870Z,73.75
2023-02-03T00:35:08.765Z,73.06
2023-02-03T00:38:19.682Z,71.93
2023-02-03T00:41:31.231Z,70.71
2023-02-03T00:44:45.353Z,71.42
2023-02-03T00:47:52.348Z,70.58
2023-02-03T00:50:59.529Z,68.87
2023-02-03T00:54:06.845Z,68.02
2023-02-03T00:57:11.589Z,66.79
2023-02-03T01:00:17.746Z,66.83
2023-02-03T01:03:22.662Z,65.80
2023-02-03T01:06:25.749Z,65.18
2023-02-03T01:09:29.594Z,64.46
2023-02-03T01:12:35.471Z,64.99
2023-02-03T01:15:37.757Z,64.61
2023-02-03T01:18:41.045Z,65.12
2023-02-03T01:21:48.628Z,63.95
2023-02-03T01:24:58.234Z,64.14
2023-02-03T01:28:10.814Z,63.70
2023-02-03T01:31:27.308Z,62.84
2023-02-03T01:34:32.102Z,63.19
2023-02-03T01:37:37.169Z,63.12
2023-02-03T01:40:53.161Z,64.36
2023-02-03T01:44:39.909Z,64.23
2023-02-03T01:47:58.065Z,63.95
2023-02-03T01:51:06.781Z,63.30
2023-02-03T01:54:13.975Z,62.63
2023-02-03T01:57:28.545Z,63.51
2023-02-03T02:00:32.186Z,63.25
2023-02-03T02:03:44.420Z,63.03
2023-02-03T02:06:53.922Z,62.18
2023-02-03T02:10:04.221Z,62.24
2023-02-03T02:13:09.190Z,61.88
2023-02-03T02:16:36.010Z,62.46
2023-02-03T02:20:15.694Z,61.96
2023-02-03T02:23:57.982Z,62.98
2023-02-03T02:27:05.861Z,62.63
2023-02-03T02:30:17.453Z,62.18
2023-02-03T02:33:22.016Z,60.89
2023-02-03T02:36:36.785Z,61.51
2023-02-03T02:40:10.389Z,60.79
2023-02-03T02:43:18.533Z,60.96
2023-02-03T02:46:43.008Z,60.52
2023-02-03T02:50:00.348Z,61.07
2023-02-03T02:53:10.405Z,61.40
2023-02-03T02:56:19.062Z,61.37
2023-02-03T02:59:28.431Z,61.71
2023-02-03T03:02:35.661Z,62.17
2023-02-03T03:06:11.641Z,61.77
2023-02-03T03:09:24.205Z,61.61
2023-02-03T03:12:35.348Z,61.12
2023-02-03T03:15:39.951Z,60.78
2023-02-03T03:18:46.830Z,59.75
2023-02-03T03:25:29.672Z,63.82
2023-02-03T03:28:59.103Z,65.68
2023-02-03T03:32:04.060Z,65.89
2023-02-03T03:35:12.588Z,65.99
2023-02-03T03:38:27.568Z,65.04
2023-02-03T03:41:55.331Z,63.71
2023-02-03T03:45:05.839Z,62.05
2023-02-03T03:48:19.961Z,62.31
2023-02-03T03:51:38.025Z,63.27
2023-02-03T03:54:49.292Z,65.10
2023-02-03T03:58:00.118Z,63.63
2023-02-03T04:01:06.269Z,64.81
2023-02-03T04:04:16.098Z,65.76
2023-02-03T04:07:23.068Z,67.00
2023-02-03T04:10:43.768Z,68.05
2023-02-03T04:13:48.713Z,67.07
2023-02-03T04:16:50.931Z,67.76
2023-02-03T04:19:55.785Z,67.23
2023-02-03T04:23:00.943Z,67.26
2023-02-03T04:26:05.911Z,64.28
2023-02-03T04:29:12.974Z,66.35
2023-02-03T04:32:29.462Z,64.09
2023-02-03T04:35:34.695Z,62.41
2023-02-03T04:38:51.114Z,60.12
2023-02-03T04:41:55.427Z,58.29
2023-02-03T04:44:59.512Z,58.72
2023-02-03T04:48:02.895Z,57.97
2023-02-03T04:51:07.509Z,57.06
2023-02-03T04:54:15.185Z,56.29
2023-02-03T04:57:17.456Z,56.74
2023-02-03T05:00:20.096Z,55.49
2023-02-03T05:03:26.428Z,56.29
2023-02-03T05:06:30.104Z,56.70
2023-02-03T05:09:32.398Z,57.35
2023-02-03T05:12:34.657Z,55.81
2023-02-03T05:15:42.337Z,56.15
2023-02-03T05:18:49.514Z,56.32
2023-02-03T05:21:55.392Z,57.18
2023-02-03T05:25:01.713Z,58.48
2023-02-03T05:28:07.096Z,60.36
2023-02-03T05:31:11.585Z,60.88
2023-02-03T05:34:15.806Z,60.14
2023-02-03T05:37:21.258Z,59.46
2023-02-03T05:40:45.003Z,60.17
2023-02-03T05:43:47.449Z,60.37
2023-02-03T05:46:56.831Z,59.27
2023-02-03T05:50:02.100Z,59.02
2023-02-03T05:53:05.625Z,59.69
2023-02-03T05:56:09.780Z,59.60
2023-02-03T05:59:22.552Z,59.97
2023-02-03T06:02:33.087Z,59.52
2023-02-03T06:05:40.847Z,60.30
2023-02-03T06:08:46.975Z,61.17
2023-02-03T06:11:49.738Z,60.43
2023-02-03T06:14:56.909Z,60.67
2023-02-03T06:18:12.345Z,61.03
2023-02-03T06:21:23.656Z,61.91
2023-02-03T06:24:33.948Z,62.22
2023-02-03T06:27:42.635Z,63.03
2023-02-03T06:30:57.623Z,63.65
2023-02-03T06:34:09.095Z,63.92
2023-02-03T06:37:11.328Z,64.60
2023-02-03T06:40:15.985Z,64.89
2023-02-03T06:43:26.017Z,65.43
2023-02-03T06:46:33.129Z,65.02
2023-02-03T06:49:35.600Z,64.92
2023-02-03T06:52:45.868Z,64.71
2023-02-03T06:55:53.833Z,64.59
2023-02-03T06:58:56.678Z,63.88
2023-02-03T07:02:01.573Z,63.95
2023-02-03T07:05:04.695Z,63.76
2023-02-03T07:08:11.429Z,62.91
2023-02-03T07:11:19.058Z,62.28
2023-02-03T07:14:27.943Z,62.21
2023-02-03T07:17:35.395Z,61.84
2023-02-03T07:20:39.996Z,62.04
2023-02-03T07:23:47.162Z,61.81
2023-02-03T07:27:01.078Z,61.99
2023-02-03T07:30:14.026Z,61.24
2023-02-03T07:33:18.533Z,61.15
2023-02-03T07:36:31.165Z,60.85
2023-02-03T07:39:36.505Z,60.79
2023-02-03T07:42:46.288Z,60.54
2023-02-03T07:45:54.794Z,59.75
2023-02-03T07:49:18.562Z,60.15
2023-02-03T07:52:29.321Z,58.83
2023-02-03T07:55:38.651Z,58.67
2023-02-03T07:58:41.404Z,59.80
2023-02-03T08:01:59.791Z,59.83
2023-02-03T08:05:05.917Z,60.50
2023-02-03T08:08:11.256Z,59.80
2023-02-03T08:11:20.359Z,59.74
2023-02-03T08:14:27.566Z,58.61
2023-02-03T08:17:33.865Z,57.77
2023-02-03T08:20:39.491Z,57.99
2023-02-03T08:23:44.805Z,58.11
2023-02-03T08:26:55.418Z,58.95
2023-02-03T08:29:57.761Z,58.65
2023-02-03T08:33:02.225Z,59.06
2023-02-03T08:36:17.242Z,59.47
2023-02-03T08:39:25.388Z,59.31
2023-02-03T08:42:36.423Z,60.17
2023-02-03T08:45:45.011Z,59.88
2023-02-03T08:48:58.223Z,60.27
2023-02-03T08:52:06.364Z,60.55
2023-02-03T08:55:14.172Z,60.63
2023-02-03T08:58:27.883Z,61.04
2023-02-03T09:01:37.432Z,60.52
2023-02-03T09:04:45.716Z,62.24
2023-02-03T09:07:48.432Z,62.44
2023-02-03T09:10:50.672Z,63.60
2023-02-03T09:13:59.043Z,63.66
2023-02-03T09:17:19.309Z,65.41
2023-02-03T09:20:35.194Z,66.77
2023-02-03T09:23:45.198Z,68.97
2023-02-03T09:27:02.606Z,72.12
2023-02-03T09:30:14.561Z,73.81
2023-02-03T09:33:17.305Z,74.69
2023-02-03T09:36:25.994Z,75.75
2023-02-03T09:39:39.625Z,78.23
2023-02-03T09:43:01.472Z,81.64
2023-02-03T09:46:13.241Z,83.31
2023-02-03T09:49:22.590Z,84.18
2023-02-03T09:52:48.232Z,84.29
2023-02-03T09:55:53.691Z,83.68
2023-02-03T09:58:58.218Z,84.50
2023-02-03T10:02:55.245Z,85.21
2023-02-03T10:06:17.687Z,85.20
2023-02-03T10:09:36.161Z,85.64
2023-02-03T10:13:18.843Z,86.01
2023-02-03T10:16:34.133Z,85.45
2023-02-03T10:20:00.565Z,85.27
2023-02-03T10:23:14.180Z,85.43
2023-02-03T10:26:26.416Z,86.43
2023-02-03T10:29:43.866Z,86.50
2023-02-03T10:32:48.485Z,86.64
2023-02-03T10:36:14.959Z,86.81
2023-02-03T10:39:29.382Z,85.23
2023-02-03T10:42:52.678Z,85.49
2023-02-03T10:45:59.029Z,85.20
2023-02-03T10:49:04.835Z,84.95
2023-02-03T10:52:32.895Z,84.42
2023-02-03T10:55:43.954Z,83.85
2023-02-03T10:58:58.554Z,84.27
2023-02-03T11:02:27.625Z,85.30
2023-02-03T11:05:34.513Z,86.03
2023-02-03T11:08:44.016Z,85.42
2023-02-03T11:11:49.989Z,85.30
2023-02-03T11:14:57.899Z,85.62
2023-02-03T11:18:28.094Z,87.05
2023-02-03T11:21:43.471Z,86.35
2023-02-03T11:24:51.033Z,85.99
2023-02-03T11:28:00.327Z,86.76
2023-02-03T11:31:19.084Z,85.97
2023-02-03T11:34:42.645Z,86.65
2023-02-03T11:37:48.383Z,87.78
2023-02-03T11:41:03.903Z,87.42
2023-02-03T11:44:17.894Z,87.27
2023-02-03T11:47:22.767Z,87.88
2023-02-03T11:50:36.081Z,87.58
2023-02-03T11:53:57.145Z,88.12
2023-02-03T11:57:20.983Z,89.05
2023-02-03T12:00:57.003Z,89.08
2023-02-03T12:04:05.355Z,89.60
2023-02-03T12:07:31.630Z,89.45
2023-02-03T12:11:14.764Z,88.18
2023-02-03T12:14:38.586Z,88.37
2023-02-03T12:17:44.883Z,89.21
2023-02-03T12:21:35.015Z,89.09
2023-02-03T12:24:46.164Z,88.40
2023-02-03T12:28:32.195Z,88.74
2023-02-03T12:31:45.724Z,88.98
2023-02-03T12:35:02.837Z,89.03
2023-02-03T12:38:28.103Z,89.06
2023-02-03T12:41:40.896Z,88.66
2023-02-03T12:44:54.379Z,89.58
2023-02-03T12:47:59.401Z,89.41
2023-02-03T12:51:08.143Z,88.66
2023-02-03T12:54:49.642Z,88.38
2023-02-03T12:58:01.635Z,87.85
2023-02-03T13:01:10.663Z,87.75
2023-02-03T13:04:25.492Z,88.28
2023-02-03T13:07:58.795Z,88.71
2023-02-03T13:11:35.199Z,88.59
2023-02-03T13:14:56.875Z,87.69
2023-02-03T13:18:32.926Z,88.19
2023-02-03T13:21:41.954Z,89.52
2023-02-03T13:24:58.984Z,89.04
2023-02-03T13:28:17.669Z,89.74
2023-02-03T13:31:41.479Z,89.38
2023-02-03T13:34:46.818Z,88.70
2023-02-03T13:38:00.879Z,88.54
2023-02-03T13:41:33.979Z,89.12
2023-02-03T13:44:45.717Z,89.21
2023-02-03T13:47:56.534Z,88.83
2023-02-03T13:51:20.865Z,88.18
2023-02-03T13:54:35.998Z,88.59
2023-02-03T13:57:41.806Z,89.10
2023-02-03T14:00:44.730Z,89.47
2023-02-03T14:03:50.513Z,89.30
2023-02-03T14:06:59.321Z,88.78
2023-02-03T14:10:25.099Z,88.88
2023-02-03T14:13:27.591Z,88.68
2023-02-03T14:16:37.493Z,87.71
2023-02-03T14:19:55.389Z,87.68
2023-02-03T14:23:17.211Z,88.38
2023-02-03T14:26:28.698Z,89.11
2023-02-03T14:29:36.221Z,89.11
2023-02-03T14:32:59.232Z,88.92
2023-02-03T14:36:06.875Z,89.03
2023-02-03T14:39:35.717Z,87.86
2023-02-03T14:42:43.060Z,87.87
2023-02-03T14:45:57.384Z,88.25
2023-02-03T14:49:40.161Z,88.39
2023-02-03T14:53:17.319Z,87.66
2023-02-03T14:57:01.382Z,88.10
2023-02-03T15:00:19.853Z,88.77
2023-02-03T15:03:35.361Z,88.94
2023-02-03T15:06:49.507Z,88.24
2023-02-03T15:09:52.193Z,89.21
2023-02-03T15:12:58.333Z,89.25
2023-02-03T15:16:08.509Z,88.02
2023-02-03T15:19:27.659Z,88.67
2023-02-03T15:22:39.824Z,88.19
2023-02-03T15:25:52.767Z,89.26
2023-02-03T15:29:00.545Z,88.94
2023-02-03T15:32:24.683Z,88.78
2023-02-03T15:35:37.561Z,88.40
2023-02-03T15:38:50.242Z,87.96
2023-02-03T15:42:01.373Z,88.87
2023-02-03T15:45:46.181Z,87.65
2023-02-03T15:49:03.708Z,88.03
2023-02-03T15:52:23.373Z,87.58
2023-02-03T15:55:45.744Z,87.87
2023-02-03T15:58:51.145Z,86.99
2023-02-03T16:01:57.800Z,87.38
2023-02-03T16:05:44.748Z,86.86
2023-02-03T16:08:53.030Z,87.27
2023-02-03T16:12:18.966Z,87.42
2023-02-03T16:15:29.706Z,87.50
2023-02-03T16:18:41.892Z,87.01
2023-02-03T16:21:54.923Z,86.45
2023-02-03T16:25:01.088Z,87.50
2023-02-03T16:28:32.440Z,86.45
2023-02-03T16:32:06.748Z,86.36
2023-02-03T16:35:33.248Z,87.00
2023-02-03T16:38:54.237Z,86.93
2023-02-03T16:42:28.763Z,86.55
2023-02-03T16:45:50.052Z,87.09
2023-02-03T16:49:14.656Z,86.97
2023-02-03T16:52:19.073Z,86.35
2023-02-03T16:55:33.535Z,85.69
2023-02-03T16:58:42.323Z,86.70
2023-02-03T17:01:44.656Z,86.35
2023-02-03T17:04:56.978Z,86.32
2023-02-03T17:08:02.955Z,87.44
2023-02-03T17:11:15.837Z,86.98
2023-02-03T17:14:24.427Z,87.00
2023-02-03T17:17:26.835Z,87.22
2023-02-03T17:20:33.874Z,86.42
2023-02-03T17:23:36.395Z,85.59
2023-02-03T17:26:42.155Z,85.60
2023-02-03T17:29:44.668Z,85.81
2023-02-03T17:32:49.146Z,85.85
2023-02-03T17:36:04.913Z,85.12
2023-02-03T17:56:19.757Z,84.46
2023-02-03T17:59:24.273Z,84.26
2023-02-03T18:02:30.831Z,83.88
2023-02-03T18:05:38.111Z,83.65
2023-02-03T18:08:55.619Z,84.41
2023-02-03T18:12:04.058Z,84.41
2023-02-03T18:15:28.505Z,84.75
2023-02-03T18:18:39.257Z,84.61
2023-02-03T18:21:44.643Z,85.34
2023-02-03T18:24:55.126Z,84.97
2023-02-03T18:28:01.356Z,84.50
2023-02-03T18:31:10.994Z,85.18
2023-02-03T18:34:13.790Z,86.01
2023-02-03T18:37:23.353Z,85.94
2023-02-03T18:40:27.093Z,86.28
2023-02-03T18:43:43.930Z,85.90
2023-02-03T18:46:49.368Z,85.29
2023-02-03T18:49:55.889Z,86.12
2023-02-03T18:53:01.573Z,86.28
2023-02-03T18:56:14.818Z,86.40
2023-02-03T18:59:22.768Z,86.59
2023-02-03T19:02:32.832Z,85.71
2023-02-03T19:05:40.294Z,85.86
2023-02-03T19:08:57.365Z,85.27
2023-02-03T19:12:02.908Z,86.38
2023-02-03T19:15:11.408Z,85.67
2023-02-03T19:18:16.639Z,86.62
2023-02-03T19:21:21.335Z,87.02
2023-02-03T19:24:27.150Z,86.93
2023-02-03T19:27:29.605Z,86.18
2023-02-03T19:30:39.779Z,86.42
2023-02-03T19:33:44.128Z,86.03
2023-02-03T19:36:49.209Z,85.86
2023-02-03T19:39:53.501Z,84.81
2023-02-03T19:43:04.284Z,84.15
2023-02-03T19:46:20.203Z,83.51
2023-02-03T19:49:26.399Z,83.18
2023-02-03T19:52:31.280Z,83.84
2023-02-03T19:55:33.623Z,84.60
2023-02-03T19:58:46.160Z,85.38
2023-02-03T20:01:49.784Z,85.94
2023-02-03T20:05:17.823Z,85.45
2023-02-03T20:08:30.080Z,85.55
2023-02-03T20:11:51.579Z,85.47
2023-02-03T20:14:59.040Z,84.91
2023-02-03T20:18:06.601Z,84.70
2023-02-03T20:21:09.753Z,84.35
2023-02-03T20:24:18.163Z,84.28
2023-02-03T20:27:23.374Z,83.17
2023-02-03T20:30:25.837Z,83.25
2023-02-03T20:33:30.835Z,83.32
2023-02-03T20:36:33.231Z,83.03
2023-02-03T20:39:38.478Z,83.39
2023-02-03T20:42:41.359Z,84.21
2023-02-03T20:45:46.912Z,84.27
2023-02-03T20:48:49.423Z,84.05
2023-02-03T20:51:54.236Z,83.81
2023-02-03T20:54:57.912Z,83.92
2023-02-03T20:58:04.335Z,83.86
2023-02-03T21:01:23.812Z,83.02
2023-02-03T21:04:52.891Z,82.73
2023-02-03T21:08:12.725Z,82.12
2023-02-03T21:11:19.639Z,82.49
2023-02-03T21:14:43.891Z,82.64
2023-02-03T21:17:50.349Z,82.42
2023-02-03T21:21:01.591Z,82.25
2023-02-03T21:24:49.947Z,82.24
2023-02-03T21:27:56.932Z,82.38
2023-02-03T21:31:12.513Z,81.76
2023-02-03T21:34:38.182Z,80.88
2023-02-03T21:37:50.189Z,79.86
2023-02-03T21:40:52.643Z,80.17
2023-02-03T21:44:03.735Z,80.26
2023-02-03T21:47:15.212Z,79.08
2023-02-03T21:50:36.478Z,79.66
2023-02-03T21:53:47.297Z,80.50
2023-02-03T21:56:56.074Z,79.69
2023-02-03T22:00:46.716Z,78.98
2023-02-03T22:03:52.951Z,80.10
2023-02-03T22:06:57.683Z,79.86
2023-02-03T22:10:00.111Z,79.66
2023-02-03T22:13:04.973Z,79.73
2023-02-03T22:16:11.120Z,80.02
2023-02-03T22:19:13.552Z,80.26
2023-02-03T22:22:21.639Z,79.89
2023-02-03T22:25:28.034Z,79.95
2023-02-03T22:28:35.911Z,79.46
2023-02-03T22:31:42.866Z,78.89
2023-02-03T22:34:55.091Z,80.29
2023-02-03T22:38:02.202Z,80.18
2023-02-03T22:41:04.864Z,80.45
2023-02-03T22:44:12.955Z,79.83
2023-02-03T22:47:24.018Z,78.84
2023-02-03T22:50:35.495Z,78.92
2023-02-03T22:53:39.564Z,78.65
2023-02-03T22:56:44.148Z,78.40
2023-02-03T22:59:52.171Z,79.11
2023-02-03T23:03:00.437Z,78.19
2023-02-03T23:06:02.859Z,78.06
2023-02-03T23:09:05.067Z,79.04
2023-02-03T23:12:10.475Z,79.70
2023-02-03T23:15:13.613Z,80.07
2023-02-03T23:18:15.860Z,79.71
2023-02-03T23:21:18.101Z,79.76
2023-02-03T23:24:24.055Z,79.08
2023-02-03T23:27:29.757Z,79.90
2023-02-03T23:30:34.717Z,79.20
2023-02-03T23:34:07.779Z,78.36
2023-02-03T23:37:17.986Z,78.69
2023-02-03T23:40:32.084Z,79.07
2023-02-03T23:43:37.934Z,78.88
2023-02-03T23:46:40.355Z,79.01
2023-02-03T23:49:45.176Z,78.90
2023-02-03T23:52:51.003Z,78.71
2023-02-03T23:55:53.250Z,78.80
2023-02-03T23:58:55.524Z,78.49
